sensor_id;sensor_type;location;lat;lon;timestamp;P1;durP1;ratioP1;P2;durP2;ratioP2
10645;SDS011;5371;49.782;9.932;2023-07-31T00:01:09;5.45;;;1.92;;
10645;SDS011;5371;49.782;9.932;2023-07-31T00:03:38;4.22;;;1.80;;
10645;SDS011;5371;49.782;9.932;2023-07-31T00:06:05;4.45;;;1.73;;
10645;SDS011;5371;49.782;9.932;2023-07-31T00:08:33;4.28;;;1.90;;
10645;SDS011;5371;49.782;9.932;2023-07-31T00:11:01;4.82;;;1.70;;
10645;SDS011;5371;49.782;9.932;2023-07-31T00:13:31;6.75;;;1.50;;
10645;SDS011;5371;49.782;9.932;2023-07-31T00:15:58;4.20;;;1.90;;
10645;SDS011;5371;49.782;9.932;2023-07-31T00:18:26;3.60;;;1.67;;
10645;SDS011;5371;49.782;9.932;2023-07-31T00:20:56;6.65;;;1.77;;
10645;SDS011;5371;49.782;9.932;2023-07-31T00:23:24;5.70;;;1.60;;
10645;SDS011;5371;49.782;9.932;2023-07-31T00:25:54;10.27;;;3.33;;
10645;SDS011;5371;49.782;9.932;2023-07-31T00:28:21;3.63;;;1.70;;
10645;SDS011;5371;49.782;9.932;2023-07-31T00:30:50;5.45;;;2.15;;
10645;SDS011;5371;49.782;9.932;2023-07-31T00:33:17;4.72;;;1.70;;
10645;SDS011;5371;49.782;9.932;2023-07-31T00:35:44;4.88;;;1.80;;
10645;SDS011;5371;49.782;9.932;2023-07-31T00:38:13;3.42;;;2.00;;
10645;SDS011;5371;49.782;9.932;2023-07-31T00:40:40;3.03;;;1.55;;
10645;SDS011;5371;49.782;9.932;2023-07-31T00:43:07;7.35;;;1.70;;
10645;SDS011;5371;49.782;9.932;2023-07-31T00:45:34;4.57;;;2.28;;
10645;SDS011;5371;49.782;9.932;2023-07-31T00:48:01;6.50;;;2.17;;
10645;SDS011;5371;49.782;9.932;2023-07-31T00:50:28;6.05;;;2.25;;
10645;SDS011;5371;49.782;9.932;2023-07-31T00:52:57;5.70;;;2.10;;
10645;SDS011;5371;49.782;9.932;2023-07-31T00:55:26;7.85;;;2.15;;
10645;SDS011;5371;49.782;9.932;2023-07-31T00:57:54;4.93;;;1.95;;
10645;SDS011;5371;49.782;9.932;2023-07-31T01:00:22;5.35;;;1.90;;
10645;SDS011;5371;49.782;9.932;2023-07-31T01:02:49;4.95;;;1.90;;
10645;SDS011;5371;49.782;9.932;2023-07-31T01:05:17;4.60;;;1.83;;
10645;SDS011;5371;49.782;9.932;2023-07-31T01:07:48;6.10;;;2.05;;
10645;SDS011;5371;49.782;9.932;2023-07-31T01:10:20;5.47;;;2.10;;
10645;SDS011;5371;49.782;9.932;2023-07-31T01:12:50;6.68;;;1.80;;
10645;SDS011;5371;49.782;9.932;2023-07-31T01:15:17;4.25;;;1.90;;
10645;SDS011;5371;49.782;9.932;2023-07-31T01:17:44;6.18;;;1.80;;
10645;SDS011;5371;49.782;9.932;2023-07-31T01:20:12;3.58;;;1.70;;
10645;SDS011;5371;49.782;9.932;2023-07-31T01:22:48;4.63;;;1.92;;
10645;SDS011;5371;49.782;9.932;2023-07-31T01:25:26;4.32;;;1.80;;
10645;SDS011;5371;49.782;9.932;2023-07-31T01:28:10;3.08;;;1.67;;
10645;SDS011;5371;49.782;9.932;2023-07-31T01:30:41;3.78;;;1.67;;
10645;SDS011;5371;49.782;9.932;2023-07-31T01:33:10;8.40;;;2.08;;
10645;SDS011;5371;49.782;9.932;2023-07-31T01:35:37;4.00;;;2.10;;
10645;SDS011;5371;49.782;9.932;2023-07-31T01:38:04;4.70;;;2.00;;
10645;SDS011;5371;49.782;9.932;2023-07-31T01:40:32;6.13;;;1.92;;
10645;SDS011;5371;49.782;9.932;2023-07-31T01:42:59;6.93;;;1.90;;
10645;SDS011;5371;49.782;9.932;2023-07-31T01:45:29;6.38;;;1.90;;
10645;SDS011;5371;49.782;9.932;2023-07-31T01:47:56;6.35;;;1.95;;
10645;SDS011;5371;49.782;9.932;2023-07-31T01:50:23;4.32;;;2.00;;
10645;SDS011;5371;49.782;9.932;2023-07-31T01:52:50;2.70;;;1.73;;
10645;SDS011;5371;49.782;9.932;2023-07-31T01:55:17;4.80;;;1.92;;
10645;SDS011;5371;49.782;9.932;2023-07-31T01:57:44;5.95;;;2.03;;
10645;SDS011;5371;49.782;9.932;2023-07-31T02:00:11;6.18;;;2.00;;
10645;SDS011;5371;49.782;9.932;2023-07-31T02:02:40;4.97;;;2.00;;
10645;SDS011;5371;49.782;9.932;2023-07-31T02:05:07;5.32;;;1.92;;
10645;SDS011;5371;49.782;9.932;2023-07-31T02:07:34;3.80;;;1.90;;
10645;SDS011;5371;49.782;9.932;2023-07-31T02:10:01;4.43;;;1.92;;
10645;SDS011;5371;49.782;9.932;2023-07-31T02:12:28;3.80;;;1.80;;
10645;SDS011;5371;49.782;9.932;2023-07-31T02:14:57;3.08;;;1.73;;
10645;SDS011;5371;49.782;9.932;2023-07-31T02:17:26;4.47;;;1.83;;
10645;SDS011;5371;49.782;9.932;2023-07-31T02:19:55;5.82;;;1.95;;
10645;SDS011;5371;49.782;9.932;2023-07-31T02:22:24;2.85;;;1.70;;
10645;SDS011;5371;49.782;9.932;2023-07-31T02:24:51;6.05;;;2.05;;
10645;SDS011;5371;49.782;9.932;2023-07-31T02:27:22;4.30;;;1.92;;
10645;SDS011;5371;49.782;9.932;2023-07-31T02:29:53;3.65;;;1.63;;
10645;SDS011;5371;49.782;9.932;2023-07-31T02:32:21;8.45;;;2.17;;
10645;SDS011;5371;49.782;9.932;2023-07-31T02:34:49;4.70;;;1.90;;
10645;SDS011;5371;49.782;9.932;2023-07-31T02:37:17;4.88;;;1.92;;
10645;SDS011;5371;49.782;9.932;2023-07-31T02:39:46;5.35;;;2.00;;
10645;SDS011;5371;49.782;9.932;2023-07-31T02:42:14;3.97;;;2.03;;
10645;SDS011;5371;49.782;9.932;2023-07-31T02:44:41;3.58;;;2.08;;
10645;SDS011;5371;49.782;9.932;2023-07-31T02:47:08;5.25;;;2.05;;
10645;SDS011;5371;49.782;9.932;2023-07-31T02:49:37;4.35;;;1.95;;
10645;SDS011;5371;49.782;9.932;2023-07-31T02:52:05;2.58;;;1.65;;
10645;SDS011;5371;49.782;9.932;2023-07-31T02:54:36;4.50;;;1.85;;
10645;SDS011;5371;49.782;9.932;2023-07-31T02:57:03;6.72;;;1.90;;
10645;SDS011;5371;49.782;9.932;2023-07-31T02:59:31;5.60;;;1.98;;
10645;SDS011;5371;49.782;9.932;2023-07-31T03:01:58;4.93;;;2.30;;
10645;SDS011;5371;49.782;9.932;2023-07-31T03:04:25;3.13;;;1.70;;
10645;SDS011;5371;49.782;9.932;2023-07-31T03:06:53;3.50;;;2.00;;
10645;SDS011;5371;49.782;9.932;2023-07-31T03:09:20;3.90;;;1.95;;
10645;SDS011;5371;49.782;9.932;2023-07-31T03:11:50;3.53;;;1.73;;
10645;SDS011;5371;49.782;9.932;2023-07-31T03:14:17;3.20;;;1.63;;
10645;SDS011;5371;49.782;9.932;2023-07-31T03:16:45;4.30;;;1.80;;
10645;SDS011;5371;49.782;9.932;2023-07-31T03:19:14;6.70;;;2.00;;
10645;SDS011;5371;49.782;9.932;2023-07-31T03:21:42;4.65;;;1.70;;
10645;SDS011;5371;49.782;9.932;2023-07-31T03:24:12;3.97;;;1.80;;
10645;SDS011;5371;49.782;9.932;2023-07-31T03:26:40;5.57;;;2.10;;
10645;SDS011;5371;49.782;9.932;2023-07-31T03:29:09;4.80;;;2.00;;
10645;SDS011;5371;49.782;9.932;2023-07-31T03:31:36;5.32;;;1.80;;
10645;SDS011;5371;49.782;9.932;2023-07-31T03:34:03;4.40;;;1.80;;
10645;SDS011;5371;49.782;9.932;2023-07-31T03:36:30;4.20;;;2.08;;
10645;SDS011;5371;49.782;9.932;2023-07-31T03:38:58;6.78;;;2.20;;
10645;SDS011;5371;49.782;9.932;2023-07-31T03:41:25;5.32;;;2.00;;
10645;SDS011;5371;49.782;9.932;2023-07-31T03:43:53;4.22;;;2.10;;
10645;SDS011;5371;49.782;9.932;2023-07-31T03:46:22;5.43;;;2.10;;
10645;SDS011;5371;49.782;9.932;2023-07-31T03:48:51;4.55;;;2.10;;
10645;SDS011;5371;49.782;9.932;2023-07-31T03:51:19;5.75;;;2.10;;
10645;SDS011;5371;49.782;9.932;2023-07-31T03:53:47;4.93;;;2.15;;
10645;SDS011;5371;49.782;9.932;2023-07-31T03:56:14;5.57;;;2.15;;
10645;SDS011;5371;49.782;9.932;2023-07-31T03:58:42;7.90;;;2.75;;
10645;SDS011;5371;49.782;9.932;2023-07-31T04:01:10;4.47;;;1.98;;
10645;SDS011;5371;49.782;9.932;2023-07-31T04:03:45;6.65;;;2.00;;
10645;SDS011;5371;49.782;9.932;2023-07-31T04:06:13;10.40;;;2.25;;
10645;SDS011;5371;49.782;9.932;2023-07-31T04:08:43;4.07;;;2.13;;
10645;SDS011;5371;49.782;9.932;2023-07-31T04:11:10;3.80;;;1.90;;
10645;SDS011;5371;49.782;9.932;2023-07-31T04:13:40;8.50;;;2.33;;
10645;SDS011;5371;49.782;9.932;2023-07-31T04:16:11;5.00;;;2.10;;
10645;SDS011;5371;49.782;9.932;2023-07-31T04:18:39;6.85;;;2.33;;
10645;SDS011;5371;49.782;9.932;2023-07-31T04:21:07;5.28;;;2.22;;
10645;SDS011;5371;49.782;9.932;2023-07-31T04:23:35;4.32;;;1.95;;
10645;SDS011;5371;49.782;9.932;2023-07-31T04:26:02;5.50;;;2.33;;
10645;SDS011;5371;49.782;9.932;2023-07-31T04:28:31;3.88;;;2.20;;
10645;SDS011;5371;49.782;9.932;2023-07-31T04:31:00;5.85;;;2.17;;
10645;SDS011;5371;49.782;9.932;2023-07-31T04:33:26;4.55;;;2.00;;
10645;SDS011;5371;49.782;9.932;2023-07-31T04:35:54;5.93;;;3.00;;
10645;SDS011;5371;49.782;9.932;2023-07-31T04:38:24;7.72;;;1.92;;
10645;SDS011;5371;49.782;9.932;2023-07-31T04:40:52;4.30;;;2.13;;
10645;SDS011;5371;49.782;9.932;2023-07-31T04:43:19;4.43;;;2.17;;
10645;SDS011;5371;49.782;9.932;2023-07-31T04:45:47;3.90;;;2.05;;
10645;SDS011;5371;49.782;9.932;2023-07-31T04:48:15;4.13;;;2.00;;
10645;SDS011;5371;49.782;9.932;2023-07-31T04:50:44;2.67;;;1.90;;
10645;SDS011;5371;49.782;9.932;2023-07-31T04:53:11;5.72;;;2.22;;
10645;SDS011;5371;49.782;9.932;2023-07-31T04:55:39;6.00;;;2.03;;
10645;SDS011;5371;49.782;9.932;2023-07-31T04:58:06;5.95;;;2.17;;
10645;SDS011;5371;49.782;9.932;2023-07-31T05:00:34;5.35;;;2.20;;
10645;SDS011;5371;49.782;9.932;2023-07-31T05:03:01;4.57;;;2.00;;
10645;SDS011;5371;49.782;9.932;2023-07-31T05:05:30;7.75;;;2.40;;
10645;SDS011;5371;49.782;9.932;2023-07-31T05:07:58;5.20;;;2.20;;
10645;SDS011;5371;49.782;9.932;2023-07-31T05:10:25;3.92;;;2.05;;
10645;SDS011;5371;49.782;9.932;2023-07-31T05:12:54;4.80;;;2.30;;
10645;SDS011;5371;49.782;9.932;2023-07-31T05:15:24;8.00;;;2.28;;
10645;SDS011;5371;49.782;9.932;2023-07-31T05:17:51;4.13;;;2.20;;
10645;SDS011;5371;49.782;9.932;2023-07-31T05:20:18;6.88;;;2.30;;
10645;SDS011;5371;49.782;9.932;2023-07-31T05:22:47;6.25;;;2.08;;
10645;SDS011;5371;49.782;9.932;2023-07-31T05:25:14;6.75;;;2.40;;
10645;SDS011;5371;49.782;9.932;2023-07-31T05:27:41;5.50;;;2.30;;
10645;SDS011;5371;49.782;9.932;2023-07-31T05:30:10;5.28;;;2.25;;
10645;SDS011;5371;49.782;9.932;2023-07-31T05:32:37;4.80;;;2.17;;
10645;SDS011;5371;49.782;9.932;2023-07-31T05:35:05;5.97;;;2.75;;
10645;SDS011;5371;49.782;9.932;2023-07-31T05:37:35;5.65;;;2.30;;
10645;SDS011;5371;49.782;9.932;2023-07-31T05:40:03;7.13;;;2.67;;
10645;SDS011;5371;49.782;9.932;2023-07-31T05:42:34;7.47;;;2.65;;
10645;SDS011;5371;49.782;9.932;2023-07-31T05:45:05;4.25;;;2.40;;
10645;SDS011;5371;49.782;9.932;2023-07-31T05:47:35;4.38;;;2.28;;
10645;SDS011;5371;49.782;9.932;2023-07-31T05:50:03;4.82;;;2.53;;
10645;SDS011;5371;49.782;9.932;2023-07-31T05:52:33;6.95;;;2.40;;
10645;SDS011;5371;49.782;9.932;2023-07-31T05:55:01;5.40;;;2.30;;
10645;SDS011;5371;49.782;9.932;2023-07-31T05:57:36;6.45;;;2.80;;
10645;SDS011;5371;49.782;9.932;2023-07-31T06:00:06;4.38;;;2.20;;
10645;SDS011;5371;49.782;9.932;2023-07-31T06:02:36;7.82;;;2.30;;
10645;SDS011;5371;49.782;9.932;2023-07-31T06:05:04;8.25;;;2.38;;
10645;SDS011;5371;49.782;9.932;2023-07-31T06:07:34;4.63;;;2.20;;
10645;SDS011;5371;49.782;9.932;2023-07-31T06:10:16;6.22;;;2.10;;
10645;SDS011;5371;49.782;9.932;2023-07-31T06:12:46;4.97;;;2.15;;
10645;SDS011;5371;49.782;9.932;2023-07-31T06:15:25;5.18;;;2.53;;
10645;SDS011;5371;49.782;9.932;2023-07-31T06:17:54;4.80;;;2.20;;
10645;SDS011;5371;49.782;9.932;2023-07-31T06:20:21;5.25;;;2.65;;
10645;SDS011;5371;49.782;9.932;2023-07-31T06:22:49;6.15;;;2.10;;
10645;SDS011;5371;49.782;9.932;2023-07-31T06:25:16;7.20;;;2.45;;
10645;SDS011;5371;49.782;9.932;2023-07-31T06:27:43;4.80;;;2.15;;
10645;SDS011;5371;49.782;9.932;2023-07-31T06:30:10;4.35;;;2.20;;
10645;SDS011;5371;49.782;9.932;2023-07-31T06:32:38;6.25;;;2.25;;
10645;SDS011;5371;49.782;9.932;2023-07-31T06:35:07;5.93;;;2.63;;
10645;SDS011;5371;49.782;9.932;2023-07-31T06:37:35;4.82;;;2.30;;
10645;SDS011;5371;49.782;9.932;2023-07-31T06:40:06;4.55;;;2.40;;
10645;SDS011;5371;49.782;9.932;2023-07-31T06:42:35;4.32;;;2.20;;
10645;SDS011;5371;49.782;9.932;2023-07-31T06:45:04;8.77;;;2.65;;
10645;SDS011;5371;49.782;9.932;2023-07-31T06:47:31;5.22;;;2.25;;
10645;SDS011;5371;49.782;9.932;2023-07-31T06:49:59;4.50;;;2.50;;
10645;SDS011;5371;49.782;9.932;2023-07-31T06:52:30;5.05;;;2.42;;
10645;SDS011;5371;49.782;9.932;2023-07-31T06:55:01;5.50;;;2.30;;
10645;SDS011;5371;49.782;9.932;2023-07-31T06:57:29;6.80;;;2.35;;
10645;SDS011;5371;49.782;9.932;2023-07-31T06:59:56;4.18;;;2.28;;
10645;SDS011;5371;49.782;9.932;2023-07-31T07:02:23;5.18;;;2.53;;
10645;SDS011;5371;49.782;9.932;2023-07-31T07:04:51;7.07;;;2.40;;
10645;SDS011;5371;49.782;9.932;2023-07-31T07:07:18;5.32;;;2.55;;
10645;SDS011;5371;49.782;9.932;2023-07-31T07:09:47;5.93;;;2.40;;
10645;SDS011;5371;49.782;9.932;2023-07-31T07:12:14;4.88;;;2.60;;
10645;SDS011;5371;49.782;9.932;2023-07-31T07:14:41;6.10;;;2.58;;
10645;SDS011;5371;49.782;9.932;2023-07-31T07:17:08;5.55;;;2.72;;
10645;SDS011;5371;49.782;9.932;2023-07-31T07:19:39;6.90;;;2.63;;
10645;SDS011;5371;49.782;9.932;2023-07-31T07:22:11;4.32;;;2.42;;
10645;SDS011;5371;49.782;9.932;2023-07-31T07:24:39;8.00;;;3.03;;
10645;SDS011;5371;49.782;9.932;2023-07-31T07:27:09;4.70;;;2.60;;
10645;SDS011;5371;49.782;9.932;2023-07-31T07:29:41;4.90;;;2.30;;
10645;SDS011;5371;49.782;9.932;2023-07-31T07:32:08;5.15;;;2.70;;
10645;SDS011;5371;49.782;9.932;2023-07-31T07:34:38;8.77;;;2.50;;
10645;SDS011;5371;49.782;9.932;2023-07-31T07:37:07;7.10;;;2.63;;
10645;SDS011;5371;49.782;9.932;2023-07-31T07:39:35;5.68;;;2.63;;
10645;SDS011;5371;49.782;9.932;2023-07-31T07:42:05;7.15;;;2.47;;
10645;SDS011;5371;49.782;9.932;2023-07-31T07:44:36;4.72;;;2.33;;
10645;SDS011;5371;49.782;9.932;2023-07-31T07:47:06;5.25;;;2.45;;
10645;SDS011;5371;49.782;9.932;2023-07-31T07:49:36;3.92;;;2.20;;
10645;SDS011;5371;49.782;9.932;2023-07-31T07:52:05;5.80;;;2.30;;
10645;SDS011;5371;49.782;9.932;2023-07-31T07:54:34;5.57;;;2.40;;
10645;SDS011;5371;49.782;9.932;2023-07-31T07:57:01;3.65;;;2.40;;
10645;SDS011;5371;49.782;9.932;2023-07-31T07:59:28;7.53;;;2.42;;
10645;SDS011;5371;49.782;9.932;2023-07-31T08:01:59;4.22;;;2.53;;
10645;SDS011;5371;49.782;9.932;2023-07-31T08:04:29;4.03;;;2.38;;
10645;SDS011;5371;49.782;9.932;2023-07-31T08:06:56;6.68;;;2.67;;
10645;SDS011;5371;49.782;9.932;2023-07-31T08:09:25;7.13;;;2.60;;
10645;SDS011;5371;49.782;9.932;2023-07-31T08:11:52;4.63;;;2.40;;
10645;SDS011;5371;49.782;9.932;2023-07-31T08:14:20;3.65;;;2.40;;
10645;SDS011;5371;49.782;9.932;2023-07-31T08:16:48;4.63;;;2.35;;
10645;SDS011;5371;49.782;9.932;2023-07-31T08:19:26;5.72;;;2.45;;
10645;SDS011;5371;49.782;9.932;2023-07-31T08:21:53;4.63;;;2.13;;
10645;SDS011;5371;49.782;9.932;2023-07-31T08:24:27;5.25;;;2.50;;
10645;SDS011;5371;49.782;9.932;2023-07-31T08:26:56;4.57;;;2.30;;
10645;SDS011;5371;49.782;9.932;2023-07-31T08:29:26;6.07;;;2.40;;
10645;SDS011;5371;49.782;9.932;2023-07-31T08:31:54;4.57;;;1.98;;
10645;SDS011;5371;49.782;9.932;2023-07-31T08:34:23;5.45;;;2.47;;
10645;SDS011;5371;49.782;9.932;2023-07-31T08:36:53;5.93;;;2.30;;
10645;SDS011;5371;49.782;9.932;2023-07-31T08:39:23;4.80;;;2.30;;
10645;SDS011;5371;49.782;9.932;2023-07-31T08:41:57;6.10;;;2.10;;
10645;SDS011;5371;49.782;9.932;2023-07-31T08:44:25;5.70;;;2.38;;
10645;SDS011;5371;49.782;9.932;2023-07-31T08:46:53;5.75;;;2.50;;
10645;SDS011;5371;49.782;9.932;2023-07-31T08:49:22;6.20;;;2.63;;
10645;SDS011;5371;49.782;9.932;2023-07-31T08:51:50;5.55;;;2.60;;
10645;SDS011;5371;49.782;9.932;2023-07-31T08:54:25;5.47;;;2.50;;
10645;SDS011;5371;49.782;9.932;2023-07-31T08:56:56;7.10;;;2.65;;
10645;SDS011;5371;49.782;9.932;2023-07-31T08:59:27;6.07;;;2.75;;
10645;SDS011;5371;49.782;9.932;2023-07-31T09:01:59;5.30;;;2.53;;
10645;SDS011;5371;49.782;9.932;2023-07-31T09:04:35;6.43;;;2.50;;
10645;SDS011;5371;49.782;9.932;2023-07-31T09:07:04;3.28;;;2.10;;
10645;SDS011;5371;49.782;9.932;2023-07-31T09:09:37;6.47;;;2.50;;
10645;SDS011;5371;49.782;9.932;2023-07-31T09:12:19;4.95;;;2.28;;
10645;SDS011;5371;49.782;9.932;2023-07-31T09:14:47;4.90;;;2.50;;
10645;SDS011;5371;49.782;9.932;2023-07-31T09:17:15;9.88;;;2.47;;
10645;SDS011;5371;49.782;9.932;2023-07-31T09:19:44;4.57;;;2.38;;
10645;SDS011;5371;49.782;9.932;2023-07-31T09:22:13;5.38;;;2.35;;
10645;SDS011;5371;49.782;9.932;2023-07-31T09:24:42;5.97;;;2.63;;
10645;SDS011;5371;49.782;9.932;2023-07-31T09:27:18;5.10;;;2.40;;
10645;SDS011;5371;49.782;9.932;2023-07-31T09:29:58;4.47;;;2.45;;
10645;SDS011;5371;49.782;9.932;2023-07-31T09:32:28;6.70;;;2.78;;
10645;SDS011;5371;49.782;9.932;2023-07-31T09:35:04;6.47;;;2.80;;
10645;SDS011;5371;49.782;9.932;2023-07-31T09:37:42;9.85;;;2.78;;
10645;SDS011;5371;49.782;9.932;2023-07-31T09:40:11;5.97;;;2.85;;
10645;SDS011;5371;49.782;9.932;2023-07-31T09:43:09;5.13;;;2.47;;
10645;SDS011;5371;49.782;9.932;2023-07-31T09:45:41;7.40;;;3.92;;
10645;SDS011;5371;49.782;9.932;2023-07-31T09:48:13;5.95;;;2.40;;
10645;SDS011;5371;49.782;9.932;2023-07-31T09:50:42;4.97;;;2.80;;
10645;SDS011;5371;49.782;9.932;2023-07-31T09:53:13;4.72;;;2.50;;
10645;SDS011;5371;49.782;9.932;2023-07-31T09:55:42;7.18;;;2.70;;
10645;SDS011;5371;49.782;9.932;2023-07-31T09:58:12;7.32;;;2.75;;
10645;SDS011;5371;49.782;9.932;2023-07-31T10:00:40;5.72;;;2.70;;
10645;SDS011;5371;49.782;9.932;2023-07-31T10:03:10;7.75;;;2.92;;
10645;SDS011;5371;49.782;9.932;2023-07-31T10:05:38;5.50;;;2.60;;
10645;SDS011;5371;49.782;9.932;2023-07-31T10:08:08;4.32;;;2.67;;
10645;SDS011;5371;49.782;9.932;2023-07-31T10:10:41;5.10;;;2.67;;
10645;SDS011;5371;49.782;9.932;2023-07-31T10:13:10;5.28;;;2.92;;
10645;SDS011;5371;49.782;9.932;2023-07-31T10:15:38;4.88;;;2.72;;
10645;SDS011;5371;49.782;9.932;2023-07-31T10:18:15;5.53;;;2.72;;
10645;SDS011;5371;49.782;9.932;2023-07-31T10:20:45;6.68;;;2.30;;
10645;SDS011;5371;49.782;9.932;2023-07-31T10:23:12;5.88;;;2.88;;
10645;SDS011;5371;49.782;9.932;2023-07-31T10:25:42;6.70;;;2.80;;
10645;SDS011;5371;49.782;9.932;2023-07-31T10:28:14;5.03;;;2.50;;
10645;SDS011;5371;49.782;9.932;2023-07-31T10:30:44;5.13;;;2.78;;
10645;SDS011;5371;49.782;9.932;2023-07-31T10:33:14;5.03;;;2.78;;
10645;SDS011;5371;49.782;9.932;2023-07-31T10:35:42;5.18;;;2.70;;
10645;SDS011;5371;49.782;9.932;2023-07-31T10:38:10;5.90;;;2.63;;
10645;SDS011;5371;49.782;9.932;2023-07-31T10:40:38;6.93;;;2.88;;
10645;SDS011;5371;49.782;9.932;2023-07-31T10:43:06;5.53;;;2.90;;
10645;SDS011;5371;49.782;9.932;2023-07-31T10:45:36;6.00;;;2.67;;
10645;SDS011;5371;49.782;9.932;2023-07-31T10:48:06;4.47;;;2.80;;
10645;SDS011;5371;49.782;9.932;2023-07-31T10:50:37;4.63;;;2.95;;
10645;SDS011;5371;49.782;9.932;2023-07-31T10:53:04;6.90;;;2.75;;
10645;SDS011;5371;49.782;9.932;2023-07-31T10:55:38;6.88;;;2.70;;
10645;SDS011;5371;49.782;9.932;2023-07-31T10:58:09;5.68;;;2.78;;
10645;SDS011;5371;49.782;9.932;2023-07-31T11:00:37;6.03;;;3.00;;
10645;SDS011;5371;49.782;9.932;2023-07-31T11:03:05;8.32;;;3.10;;
10645;SDS011;5371;49.782;9.932;2023-07-31T11:05:42;8.32;;;2.88;;
10645;SDS011;5371;49.782;9.932;2023-07-31T11:08:18;5.13;;;2.75;;
10645;SDS011;5371;49.782;9.932;2023-07-31T11:10:49;9.02;;;2.92;;
10645;SDS011;5371;49.782;9.932;2023-07-31T11:13:25;5.50;;;2.83;;
10645;SDS011;5371;49.782;9.932;2023-07-31T11:15:54;6.63;;;2.85;;
10645;SDS011;5371;49.782;9.932;2023-07-31T11:18:22;4.30;;;2.50;;
10645;SDS011;5371;49.782;9.932;2023-07-31T11:20:51;4.63;;;2.67;;
10645;SDS011;5371;49.782;9.932;2023-07-31T11:23:19;8.10;;;2.85;;
10645;SDS011;5371;49.782;9.932;2023-07-31T11:25:46;5.55;;;3.00;;
10645;SDS011;5371;49.782;9.932;2023-07-31T11:28:16;4.20;;;2.80;;
10645;SDS011;5371;49.782;9.932;2023-07-31T11:30:49;6.07;;;3.00;;
10645;SDS011;5371;49.782;9.932;2023-07-31T11:33:18;4.78;;;3.35;;
10645;SDS011;5371;49.782;9.932;2023-07-31T11:35:47;4.45;;;2.80;;
10645;SDS011;5371;49.782;9.932;2023-07-31T11:38:21;6.40;;;3.13;;
10645;SDS011;5371;49.782;9.932;2023-07-31T11:40:52;9.80;;;2.95;;
10645;SDS011;5371;49.782;9.932;2023-07-31T11:43:20;6.95;;;2.60;;
10645;SDS011;5371;49.782;9.932;2023-07-31T11:45:52;5.00;;;2.65;;
10645;SDS011;5371;49.782;9.932;2023-07-31T11:48:20;6.32;;;2.78;;
10645;SDS011;5371;49.782;9.932;2023-07-31T11:50:50;8.32;;;3.03;;
10645;SDS011;5371;49.782;9.932;2023-07-31T11:53:18;7.97;;;3.05;;
10645;SDS011;5371;49.782;9.932;2023-07-31T11:55:50;5.45;;;2.50;;
10645;SDS011;5371;49.782;9.932;2023-07-31T11:58:20;5.53;;;2.83;;
10645;SDS011;5371;49.782;9.932;2023-07-31T12:00:51;6.25;;;3.10;;
10645;SDS011;5371;49.782;9.932;2023-07-31T12:03:19;5.70;;;3.13;;
10645;SDS011;5371;49.782;9.932;2023-07-31T12:05:48;6.53;;;2.92;;
10645;SDS011;5371;49.782;9.932;2023-07-31T12:08:15;9.30;;;3.35;;
10645;SDS011;5371;49.782;9.932;2023-07-31T12:10:46;7.53;;;3.13;;
10645;SDS011;5371;49.782;9.932;2023-07-31T12:13:19;5.85;;;3.03;;
10645;SDS011;5371;49.782;9.932;2023-07-31T12:15:47;7.88;;;3.00;;
10645;SDS011;5371;49.782;9.932;2023-07-31T12:18:18;6.78;;;3.05;;
10645;SDS011;5371;49.782;9.932;2023-07-31T12:20:46;8.25;;;3.05;;
10645;SDS011;5371;49.782;9.932;2023-07-31T12:23:15;6.60;;;3.35;;
10645;SDS011;5371;49.782;9.932;2023-07-31T12:25:43;5.85;;;3.05;;
10645;SDS011;5371;49.782;9.932;2023-07-31T12:28:12;6.30;;;2.80;;
10645;SDS011;5371;49.782;9.932;2023-07-31T12:30:41;6.20;;;3.38;;
10645;SDS011;5371;49.782;9.932;2023-07-31T12:33:12;8.70;;;3.25;;
10645;SDS011;5371;49.782;9.932;2023-07-31T12:35:44;4.65;;;2.63;;
10645;SDS011;5371;49.782;9.932;2023-07-31T12:38:14;5.85;;;3.35;;
10645;SDS011;5371;49.782;9.932;2023-07-31T12:40:42;5.45;;;2.90;;
10645;SDS011;5371;49.782;9.932;2023-07-31T12:43:09;6.78;;;3.08;;
10645;SDS011;5371;49.782;9.932;2023-07-31T12:45:36;6.10;;;3.10;;
10645;SDS011;5371;49.782;9.932;2023-07-31T12:48:04;9.77;;;3.63;;
10645;SDS011;5371;49.782;9.932;2023-07-31T12:50:31;6.70;;;3.17;;
10645;SDS011;5371;49.782;9.932;2023-07-31T12:53:00;6.55;;;3.35;;
10645;SDS011;5371;49.782;9.932;2023-07-31T12:55:29;5.47;;;3.25;;
10645;SDS011;5371;49.782;9.932;2023-07-31T12:57:58;6.93;;;3.10;;
10645;SDS011;5371;49.782;9.932;2023-07-31T13:00:33;6.75;;;3.10;;
10645;SDS011;5371;49.782;9.932;2023-07-31T13:03:00;7.60;;;2.95;;
10645;SDS011;5371;49.782;9.932;2023-07-31T13:05:29;7.25;;;3.25;;
10645;SDS011;5371;49.782;9.932;2023-07-31T13:07:57;5.90;;;3.08;;
10645;SDS011;5371;49.782;9.932;2023-07-31T13:10:25;4.13;;;3.00;;
10645;SDS011;5371;49.782;9.932;2023-07-31T13:12:55;9.50;;;3.40;;
10645;SDS011;5371;49.782;9.932;2023-07-31T13:15:22;6.68;;;3.28;;
10645;SDS011;5371;49.782;9.932;2023-07-31T13:17:50;9.50;;;3.10;;
10645;SDS011;5371;49.782;9.932;2023-07-31T13:20:17;7.07;;;2.80;;
10645;SDS011;5371;49.782;9.932;2023-07-31T13:22:45;4.88;;;2.95;;
10645;SDS011;5371;49.782;9.932;2023-07-31T13:25:12;5.18;;;3.13;;
10645;SDS011;5371;49.782;9.932;2023-07-31T13:27:41;6.80;;;3.20;;
10645;SDS011;5371;49.782;9.932;2023-07-31T13:30:09;9.88;;;3.35;;
10645;SDS011;5371;49.782;9.932;2023-07-31T13:32:41;8.25;;;3.22;;
10645;SDS011;5371;49.782;9.932;2023-07-31T13:35:13;9.15;;;3.63;;
10645;SDS011;5371;49.782;9.932;2023-07-31T13:37:42;5.75;;;3.20;;
10645;SDS011;5371;49.782;9.932;2023-07-31T13:40:11;7.10;;;3.40;;
10645;SDS011;5371;49.782;9.932;2023-07-31T13:42:38;5.60;;;3.33;;
10645;SDS011;5371;49.782;9.932;2023-07-31T13:45:10;6.38;;;3.05;;
10645;SDS011;5371;49.782;9.932;2023-07-31T13:47:37;5.25;;;2.90;;
10645;SDS011;5371;49.782;9.932;2023-07-31T13:50:05;10.57;;;3.22;;
10645;SDS011;5371;49.782;9.932;2023-07-31T13:52:33;8.05;;;3.13;;
10645;SDS011;5371;49.782;9.932;2023-07-31T13:55:01;7.60;;;3.08;;
10645;SDS011;5371;49.782;9.932;2023-07-31T13:57:30;4.75;;;2.97;;
10645;SDS011;5371;49.782;9.932;2023-07-31T14:00:01;6.55;;;3.45;;
10645;SDS011;5371;49.782;9.932;2023-07-31T14:02:30;5.55;;;3.10;;
10645;SDS011;5371;49.782;9.932;2023-07-31T14:04:58;8.07;;;3.15;;
10645;SDS011;5371;49.782;9.932;2023-07-31T14:07:25;7.32;;;2.97;;
10645;SDS011;5371;49.782;9.932;2023-07-31T14:09:53;6.30;;;3.40;;
10645;SDS011;5371;49.782;9.932;2023-07-31T14:12:22;7.45;;;3.20;;
10645;SDS011;5371;49.782;9.932;2023-07-31T14:14:50;7.53;;;3.05;;
10645;SDS011;5371;49.782;9.932;2023-07-31T14:17:19;6.97;;;3.28;;
10645;SDS011;5371;49.782;9.932;2023-07-31T14:19:46;6.88;;;2.78;;
10645;SDS011;5371;49.782;9.932;2023-07-31T14:22:14;6.15;;;3.22;;
10645;SDS011;5371;49.782;9.932;2023-07-31T14:24:41;5.85;;;3.30;;
10645;SDS011;5371;49.782;9.932;2023-07-31T14:27:08;5.55;;;3.10;;
10645;SDS011;5371;49.782;9.932;2023-07-31T14:29:35;5.43;;;3.03;;
10645;SDS011;5371;49.782;9.932;2023-07-31T14:32:07;8.40;;;3.20;;
10645;SDS011;5371;49.782;9.932;2023-07-31T14:34:38;5.90;;;3.40;;
10645;SDS011;5371;49.782;9.932;2023-07-31T14:37:05;8.15;;;3.33;;
10645;SDS011;5371;49.782;9.932;2023-07-31T14:39:32;7.20;;;3.33;;
10645;SDS011;5371;49.782;9.932;2023-07-31T14:41:59;7.15;;;3.30;;
10645;SDS011;5371;49.782;9.932;2023-07-31T14:44:27;5.93;;;3.03;;
10645;SDS011;5371;49.782;9.932;2023-07-31T14:46:54;8.95;;;3.13;;
10645;SDS011;5371;49.782;9.932;2023-07-31T14:49:21;5.45;;;2.75;;
10645;SDS011;5371;49.782;9.932;2023-07-31T14:51:49;7.03;;;3.20;;
10645;SDS011;5371;49.782;9.932;2023-07-31T14:54:17;6.50;;;3.10;;
10645;SDS011;5371;49.782;9.932;2023-07-31T14:56:44;11.65;;;3.28;;
10645;SDS011;5371;49.782;9.932;2023-07-31T14:59:10;5.95;;;3.00;;
10645;SDS011;5371;49.782;9.932;2023-07-31T15:01:37;5.90;;;2.97;;
10645;SDS011;5371;49.782;9.932;2023-07-31T15:04:05;5.72;;;2.90;;
10645;SDS011;5371;49.782;9.932;2023-07-31T15:06:32;6.88;;;3.08;;
10645;SDS011;5371;49.782;9.932;2023-07-31T15:09:06;5.15;;;2.65;;
10645;SDS011;5371;49.782;9.932;2023-07-31T15:11:33;5.57;;;3.33;;